Time;durP1;ratioP1;P1;durP2;ratioP2;P2;SDS_P1;SDS_P2;PMS_P1;PMS_P2;Temp;Humidity;BMP_temperature;BMP_pressure;BME280_temperature;BME280_humidity;BME280_pressure;Samples;Min_cycle;Max_cycle;Signal;HPM_P1;HPM_P2
2022/08/04 00:01:47;;;;;;;12.05;4.05;;;;;;;24.11;66.55;101151.34;5189396;28;20496;-72
2022/08/04 00:04:18;;;;;;;14.13;3.85;;;;;;;23.98;67.03;101142.03;5206371;28;20049;-72
2022/08/04 00:07:25;;;;;;;12.25;4.18;;;;;;;24.22;65.87;101145.66;5206519;28;20030;-72
2022/08/04 00:10:02;;;;;;;11.95;3.50;;;;;;;24.04;66.50;101146.72;5209498;28;20033;-72
2022/08/04 00:12:40;;;;;;;10.95;3.35;;;;;;;23.85;67.25;101137.25;5193542;28;20125;-73
2022/08/04 00:15:15;;;;;;;11.02;3.70;;;;;;;24.06;66.58;101138.50;5211063;28;20030;-73
2022/08/04 00:17:53;;;;;;;11.10;4.18;;;;;;;24.08;66.43;101136.50;5210575;28;20026;-74
2022/08/04 00:20:31;;;;;;;12.00;4.18;;;;;;;24.13;66.08;101139.47;5209669;28;20209;-75
2022/08/04 00:23:04;;;;;;;13.95;3.67;;;;;;;23.88;66.79;101134.25;5210836;28;20138;-74
2022/08/04 00:25:40;;;;;;;8.40;3.53;;;;;;;23.86;67.58;101133.56;5210781;28;20436;-72
2022/08/04 00:28:12;;;;;;;10.15;3.42;;;;;;;23.91;66.88;101128.53;5192096;28;20112;-74
2022/08/04 00:30:44;;;;;;;15.15;4.05;;;;;;;23.65;68.17;101132.31;5193636;28;20022;-72
2022/08/04 00:33:19;;;;;;;8.73;3.15;;;;;;;24.09;65.16;101127.44;5208399;28;20031;-72
2022/08/04 00:35:50;;;;;;;7.50;3.95;;;;;;;23.76;66.44;101128.44;5209725;28;20026;-72
2022/08/04 00:38:22;;;;;;;10.23;3.22;;;;;;;23.68;67.23;101115.94;5209535;28;20026;-72
2022/08/04 00:41:12;;;;;;;10.77;3.85;;;;;;;23.92;65.48;101116.00;5210782;28;20136;-72
2022/08/04 00:44:12;;;;;;;8.68;3.30;;;;;;;23.91;65.11;101117.84;5209774;28;20037;-72
2022/08/04 00:47:15;;;;;;;7.13;3.22;;;;;;;23.94;64.90;101114.00;5192897;28;20022;-72
2022/08/04 00:49:54;;;;;;;10.75;4.68;;;;;;;23.94;64.27;101114.00;5192686;28;20558;-72
2022/08/04 00:52:53;;;;;;;12.60;3.42;;;;;;;23.74;65.34;101109.06;5208770;28;20026;-72
2022/08/04 00:55:59;;;;;;;11.60;4.03;;;;;;;24.07;63.35;101108.06;5209648;28;20685;-73
2022/08/04 00:58:58;;;;;;;10.75;3.65;;;;;;;23.97;63.17;101104.78;5209950;28;20052;-73
2022/08/04 01:01:46;;;;;;;10.73;3.67;;;;;;;23.87;63.67;101105.84;5209781;28;20064;-73
2022/08/04 01:04:44;;;;;;;10.02;4.80;;;;;;;24.02;62.67;101110.44;5210387;28;20136;-72
2022/08/04 01:07:35;;;;;;;14.63;3.72;;;;;;;23.77;63.66;101099.88;5209614;28;20381;-72
2022/08/04 01:10:15;;;;;;;9.32;3.63;;;;;;;23.67;64.30;101103.56;5210544;28;20026;-72
2022/08/04 01:13:05;;;;;;;11.80;3.47;;;;;;;24.01;62.04;101096.25;5211342;28;20034;-73
2022/08/04 01:16:01;;;;;;;8.00;3.33;;;;;;;24.07;61.27;101091.19;5192715;28;20034;-73
2022/08/04 01:18:58;;;;;;;13.05;3.33;;;;;;;23.90;61.85;101089.44;5209990;28;20121;-72
2022/08/04 01:21:29;;;;;;;9.40;3.42;;;;;;;23.94;61.33;101089.94;5207681;28;20045;-72
2022/08/04 01:24:28;;;;;;;9.75;3.03;;;;;;;23.98;61.05;101090.41;5192666;28;20064;-73
2022/08/04 01:27:49;;;;;;;16.70;3.75;;;;;;;23.93;61.11;101094.44;5208661;28;20816;-73
2022/08/04 01:30:24;;;;;;;17.80;4.03;;;;;;;23.73;61.90;101082.50;5148091;28;20042;-73
2022/08/04 01:33:01;;;;;;;11.35;3.90;;;;;;;23.80;61.33;101075.44;5209875;28;20517;-73
2022/08/04 01:35:54;;;;;;;11.63;3.38;;;;;;;23.74;61.20;101074.31;5207698;28;20092;-73
2022/08/04 01:38:33;;;;;;;12.20;3.97;;;;;;;23.87;60.67;101070.22;5209184;28;20555;-73
2022/08/04 01:41:06;;;;;;;13.10;4.25;;;;;;;23.77;60.83;101071.28;5209758;28;20772;-73
2022/08/04 01:43:43;;;;;;;11.25;3.13;;;;;;;23.64;61.13;101071.00;5208807;28;20053;-72
2022/08/04 01:46:16;;;;;;;12.70;4.10;;;;;;;23.63;61.29;101070.19;5191426;28;20113;-73
2022/08/04 01:48:52;;;;;;;12.43;3.33;;;;;;;23.66;61.05;101069.84;5209216;28;20038;-73
2022/08/04 01:51:24;;;;;;;8.85;3.47;;;;;;;23.72;60.43;101062.13;5208556;28;20276;-73
2022/08/04 01:53:56;;;;;;;11.45;3.15;;;;;;;23.56;60.96;101070.03;5208718;28;20030;-73
2022/08/04 01:56:29;;;;;;;13.30;4.07;;;;;;;23.59;60.78;101071.53;5209613;28;20034;-73
2022/08/04 01:59:02;;;;;;;15.52;3.78;;;;;;;23.65;60.52;101078.84;5209289;28;20041;-73
2022/08/04 02:01:35;;;;;;;12.80;3.38;;;;;;;23.57;60.56;101065.53;5190934;28;20029;-73
2022/08/04 02:04:06;;;;;;;8.63;3.53;;;;;;;23.54;60.23;101060.53;5208755;28;20038;-73
2022/08/04 02:06:48;;;;;;;12.85;2.85;;;;;;;23.63;60.25;101059.50;5207580;28;20018;-73
2022/08/04 02:09:28;;;;;;;12.52;3.58;;;;;;;23.60;60.20;101075.06;5191091;28;20088;-73
2022/08/04 02:12:21;;;;;;;9.52;3.50;;;;;;;23.65;60.04;101057.47;5208766;28;20072;-72
2022/08/04 02:14:58;;;;;;;8.95;2.97;;;;;;;23.56;59.88;101056.66;5208099;28;20040;-72
2022/08/04 02:17:43;;;;;;;11.55;3.53;;;;;;;23.62;59.61;101054.28;5208237;28;20026;-72
2022/08/04 02:20:21;;;;;;;16.05;3.65;;;;;;;23.66;59.50;101052.97;5205841;28;20026;-73
2022/08/04 02:22:58;;;;;;;8.35;2.97;;;;;;;23.52;59.98;101052.69;5190816;28;20611;-72
2022/08/04 02:25:40;;;;;;;14.15;3.55;;;;;;;23.49;59.93;101041.50;5206804;28;20026;-72
2022/08/04 02:28:35;;;;;;;11.23;2.40;;;;;;;23.61;59.40;101041.94;5208434;28;20034;-72
2022/08/04 02:31:06;;;;;;;;;;;;;;;23.71;58.64;101044.41;5191665;28;20026;-72
2022/08/04 02:33:43;;;;;;;17.10;3.78;;;;;;;23.39;60.46;101041.69;5207783;28;19924;-72
2022/08/04 02:36:21;;;;;;;13.10;2.67;;;;;;;23.38;60.34;101035.50;5207419;28;20049;-73
2022/08/04 02:38:58;;;;;;;13.18;2.88;;;;;;;23.39;59.81;101031.81;5208900;28;20034;-73
2022/08/04 02:41:31;;;;;;;12.07;3.70;;;;;;;23.54;59.38;101039.16;5190668;28;20601;-73
2022/08/04 02:44:08;;;;;;;12.25;2.80;;;;;;;23.53;59.29;101037.47;5190130;28;20037;-73
2022/08/04 02:46:41;;;;;;;14.48;2.80;;;;;;;23.50;59.16;101027.13;5207724;28;20782;-73
2022/08/04 02:49:14;;;;;;;10.85;3.00;;;;;;;23.33;60.00;101029.84;5207655;28;20038;-74
2022/08/04 02:51:49;;;;;;;10.23;2.53;;;;;;;23.49;59.43;101028.13;5189262;28;20542;-73
2022/08/04 02:54:27;;;;;;;10.85;2.60;;;;;;;23.31;60.33;101018.50;5190853;28;20034;-72
2022/08/04 02:57:00;;;;;;;11.27;2.60;;;;;;;23.20;60.52;101025.03;5207638;28;20032;-72
2022/08/04 02:59:48;;;;;;;11.48;2.53;;;;;;;23.35;59.88;101010.97;5189810;28;20488;-72
2022/08/04 03:02:46;;;;;;;13.57;3.33;;;;;;;23.22;60.26;101015.00;5206799;28;20054;-72
2022/08/04 03:05:25;;;;;;;8.82;2.70;;;;;;;23.15;60.76;101014.88;5205950;28;20064;-72
2022/08/04 03:08:23;;;;;;;6.93;2.50;;;;;;;23.12;60.81;101009.03;5207670;28;20030;-72
2022/08/04 03:10:57;;;;;;;15.52;3.95;;;;;;;23.04;60.81;101012.56;5208019;28;20041;-72
2022/08/04 03:13:52;;;;;;;7.05;2.22;;;;;;;23.19;60.15;101008.19;5190405;28;20645;-72
2022/08/04 03:16:36;;;;;;;6.85;2.40;;;;;;;23.14;60.17;101007.03;5207280;28;20491;-72
2022/08/04 03:19:35;;;;;;;9.52;2.60;;;;;;;23.08;60.35;101009.38;5189249;28;20029;-72
2022/08/04 03:22:12;;;;;;;15.93;2.70;;;;;;;23.21;59.88;101016.84;5206105;28;20029;-72
2022/08/04 03:25:28;;;;;;;9.30;2.60;;;;;;;23.25;59.89;101032.53;5189824;28;20399;-72
2022/08/04 03:28:24;;;;;;;11.07;2.38;;;;;;;23.10;60.68;101046.59;5207786;28;20029;-72
2022/08/04 03:31:26;;;;;;;12.40;2.53;;;;;;;23.13;60.81;101042.75;5189892;28;20045;-72
2022/08/04 03:34:24;;;;;;;14.52;2.35;;;;;;;23.18;60.49;101038.56;5207384;28;20045;-72
2022/08/04 03:37:26;;;;;;;15.68;3.00;;;;;;;22.91;61.71;101019.28;5188322;28;20030;-72
2022/08/04 03:40:12;;;;;;;9.18;2.00;;;;;;;23.00;61.22;101021.91;5189014;28;20033;-71
2022/08/04 03:42:57;;;;;;;13.88;3.30;;;;;;;22.92;62.14;101020.09;5207345;28;20477;-71
2022/08/04 03:45:34;;;;;;;10.63;3.13;;;;;;;22.83;62.53;101024.63;5206639;28;20046;-71
2022/08/04 03:48:43;;;;;;;11.27;2.85;;;;;;;22.56;64.05;101031.94;5207554;28;20029;-71
2022/08/04 03:54:58;;;;;;;13.63;4.07;;;;;;;22.48;64.95;101043.47;5206758;28;20034;-72
2022/08/04 03:57:46;;;;;;;11.75;3.17;;;;;;;22.62;64.12;101058.00;5207135;28;20030;-72
2022/08/04 04:00:38;;;;;;;9.43;2.95;;;;;;;22.38;65.94;101053.47;5206818;28;20038;-72
2022/08/04 04:03:33;;;;;;;7.93;3.53;;;;;;;22.39;65.48;101061.31;5206675;28;20060;-72
2022/08/04 04:06:42;;;;;;;12.48;3.88;;;;;;;22.36;66.11;101067.81;5203852;28;20409;-72
2022/08/04 04:09:38;;;;;;;13.45;4.03;;;;;;;22.35;65.90;101065.31;5205662;28;20077;-72
2022/08/04 04:12:09;;;;;;;9.10;4.90;;;;;;;22.29;66.01;101058.78;5206050;28;20030;-72
2022/08/04 04:15:02;;;;;;;7.43;3.05;;;;;;;22.31;66.12;101066.63;5206238;28;20030;-74
2022/08/04 04:17:59;;;;;;;12.60;3.60;;;;;;;22.27;65.76;101059.97;5206480;28;20121;-72
2022/08/04 04:20:49;;;;;;;13.27;4.18;;;;;;;21.98;67.65;101049.56;5204301;28;20491;-72
2022/08/04 04:23:48;;;;;;;19.73;5.35;;;;;;;21.92;68.58;101052.91;5206652;28;20022;-72
2022/08/04 04:26:19;;;;;;;16.15;4.10;;;;;;;21.87;68.74;101065.88;5205976;28;20022;-72
2022/08/04 04:29:11;;;;;;;9.10;3.33;;;;;;;22.11;67.47;101062.41;5207267;28;20572;-72
2022/08/04 04:32:10;;;;;;;9.85;3.67;;;;;;;22.10;67.49;101055.41;5206778;28;20088;-72
2022/08/04 04:35:17;;;;;;;13.30;3.97;;;;;;;22.02;69.13;101057.22;5205140;28;20060;-73
2022/08/04 04:38:16;;;;;;;11.02;3.90;;;;;;;21.96;68.77;101062.22;5188871;28;20139;-73
2022/08/04 04:41:02;;;;;;;8.93;3.65;;;;;;;21.90;69.35;101054.88;5165693;28;20042;-72
2022/08/04 04:44:08;;;;;;;14.77;3.53;;;;;;;22.00;69.54;101068.91;5204797;28;20025;-72
2022/08/04 04:46:45;;;;;;;9.63;3.55;;;;;;;22.03;69.67;101064.25;5206940;28;20117;-72
2022/08/04 04:49:36;;;;;;;13.52;3.67;;;;;;;22.02;69.91;101059.91;5188666;28;20536;-72
2022/08/04 04:52:29;;;;;;;10.65;3.70;;;;;;;22.11;69.73;101061.59;5206420;28;20107;-71
2022/08/04 04:55:12;;;;;;;12.43;3.55;;;;;;;22.12;69.72;101071.25;5206850;28;20493;-72
2022/08/04 04:57:45;;;;;;;9.40;3.30;;;;;;;22.21;69.50;101062.28;5209398;28;20030;-72
2022/08/04 05:00:17;;;;;;;11.33;3.53;;;;;;;21.97;71.42;101066.56;5209903;28;20030;-72
2022/08/04 05:03:10;;;;;;;10.77;3.95;;;;;;;22.24;69.50;101080.63;5210058;28;20042;-72
2022/08/04 05:06:17;;;;;;;9.88;3.22;;;;;;;22.30;69.90;101075.63;5208919;28;20052;-72
2022/08/04 05:08:48;;;;;;;10.93;3.60;;;;;;;22.31;70.15;101082.63;5210253;28;20057;-72
2022/08/04 05:11:27;;;;;;;11.77;4.18;;;;;;;22.12;72.83;101076.59;5209259;28;20026;-71
2022/08/04 05:14:05;;;;;;;12.02;3.88;;;;;;;22.12;71.95;101073.94;5192731;28;20033;-72
2022/08/04 05:16:53;;;;;;;13.68;4.40;;;;;;;22.26;70.38;101063.59;5192851;28;20021;-72
2022/08/04 05:19:56;;;;;;;12.68;4.18;;;;;;;22.34;69.95;101077.78;5210386;28;20018;-71
2022/08/04 05:22:52;;;;;;;10.32;3.60;;;;;;;22.26;71.58;101075.13;5192418;28;20030;-72
2022/08/04 05:25:48;;;;;;;13.15;4.38;;;;;;;22.39;70.83;101074.66;5210522;28;20112;-72
2022/08/04 05:28:38;;;;;;;16.65;3.90;;;;;;;22.26;73.09;101079.63;5210505;28;20378;-72
2022/08/04 05:31:10;;;;;;;8.82;3.28;;;;;;;22.29;72.77;101066.78;5210011;28;20049;-72
2022/08/04 05:33:48;;;;;;;14.73;4.30;;;;;;;22.37;72.78;101071.31;5210707;28;20044;-73
2022/08/04 05:36:24;;;;;;;13.00;4.63;;;;;;;22.35;73.05;101062.63;5191168;28;20026;-72
2022/08/04 05:38:58;;;;;;;11.52;4.03;;;;;;;22.43;73.36;101067.97;5210047;28;20026;-72
2022/08/04 05:41:32;;;;;;;8.80;3.75;;;;;;;22.44;74.04;101053.66;5209148;28;20022;-73
2022/08/04 05:44:07;;;;;;;11.63;3.83;;;;;;;22.55;73.68;101059.66;5209811;28;20380;-72
2022/08/04 05:46:40;;;;;;;12.00;3.90;;;;;;;22.70;72.28;101055.34;5209237;28;20040;-72
2022/08/04 05:49:12;;;;;;;14.57;4.80;;;;;;;22.74;72.59;101049.66;5207846;28;20037;-74
2022/08/04 05:51:45;;;;;;;16.75;4.72;;;;;;;22.87;71.25;101059.81;5208460;28;20049;-73
2022/08/04 05:54:17;;;;;;;18.90;5.35;;;;;;;22.83;70.42;101052.16;5208935;28;20026;-73
2022/08/04 05:56:49;;;;;;;11.43;4.80;;;;;;;22.84;71.96;101056.50;5209179;28;20058;-73
2022/08/04 05:59:24;;;;;;;15.60;4.75;;;;;;;22.83;70.16;101046.00;5191320;28;20030;-73
2022/08/04 06:01:58;;;;;;;11.77;4.22;;;;;;;22.86;72.47;101063.50;5209556;28;20034;-72
2022/08/04 06:04:33;;;;;;;13.35;4.93;;;;;;;22.92;73.07;101063.66;5207783;28;20061;-72
2022/08/04 06:07:06;;;;;;;13.35;4.63;;;;;;;23.07;71.51;101062.97;5191373;28;20056;-72
2022/08/04 06:09:38;;;;;;;12.05;3.92;;;;;;;23.04;71.06;101057.97;5208590;28;20033;-72
2022/08/04 06:12:29;;;;;;;13.07;4.32;;;;;;;23.15;70.16;101054.94;5208360;28;20048;-72
2022/08/04 06:15:01;;;;;;;19.63;5.72;;;;;;;23.20;70.11;101059.75;5208518;28;20033;-73
2022/08/04 06:17:39;;;;;;;22.17;4.97;;;;;;;23.12;70.33;101044.59;5191350;28;20033;-73
2022/08/04 06:20:13;;;;;;;20.80;6.03;;;;;;;23.28;70.78;101064.25;5207299;28;20389;-74
2022/08/04 06:22:49;;;;;;;26.77;6.03;;;;;;;23.19;71.25;101058.94;5208382;28;20041;-73
2022/08/04 06:25:25;;;;;;;17.58;5.88;;;;;;;23.27;70.59;101058.06;5206507;28;20461;-72
2022/08/04 06:27:58;;;;;;;27.08;7.75;;;;;;;23.29;69.57;101063.25;5208162;28;20025;-72
2022/08/04 06:30:31;;;;;;;17.15;7.47;;;;;;;23.20;70.84;101065.94;5208477;28;20030;-72
2022/08/04 06:33:12;;;;;;;19.85;6.80;;;;;;;23.40;69.07;101064.72;5207872;28;20386;-72
2022/08/04 06:35:44;;;;;;;24.38;8.23;;;;;;;23.25;69.24;101068.09;5207396;28;20511;-72
2022/08/04 06:38:16;;;;;;;12.57;7.30;;;;;;;23.54;67.57;101065.88;5207910;28;20022;-72
2022/08/04 06:40:48;;;;;;;18.00;7.95;;;;;;;23.55;68.23;101075.53;5207586;28;20029;-72
2022/08/04 06:43:21;;;;;;;17.45;8.73;;;;;;;23.64;68.15;101081.69;5208076;28;20687;-72
2022/08/04 06:45:55;;;;;;;19.45;8.82;;;;;;;23.87;66.68;101088.94;5207018;28;20026;-72
2022/08/04 06:48:28;;;;;;;17.63;7.75;;;;;;;23.92;66.08;101082.06;5208160;28;20528;-72
2022/08/04 06:51:00;;;;;;;15.55;7.68;;;;;;;23.96;66.82;101074.53;5205694;28;20824;-72
2022/08/04 06:53:31;;;;;;;21.27;6.82;;;;;;;24.12;66.16;101083.47;5207767;28;20346;-72
2022/08/04 06:56:03;;;;;;;22.17;7.55;;;;;;;24.17;66.33;101083.78;5207545;28;20037;-72
2022/08/04 06:58:37;;;;;;;15.40;6.80;;;;;;;24.29;64.83;101085.06;5208164;28;20057;-72
2022/08/04 07:01:09;;;;;;;23.90;8.33;;;;;;;24.34;64.69;101081.84;5190938;28;20103;-72
2022/08/04 07:03:41;;;;;;;27.95;7.78;;;;;;;24.40;64.72;101085.66;5205451;28;20304;-74
2022/08/04 07:06:13;;;;;;;11.52;7.05;;;;;;;24.20;66.79;101085.28;5207307;28;20511;-73
2022/08/04 07:08:45;;;;;;;14.82;7.57;;;;;;;24.33;66.46;101080.16;5189459;28;20062;-73
2022/08/04 07:11:18;;;;;;;13.77;8.27;;;;;;;24.40;65.96;101080.31;5207757;28;20097;-73
2022/08/04 07:13:51;;;;;;;20.13;8.10;;;;;;;24.51;66.05;101081.72;5207288;28;20467;-72
2022/08/04 07:16:22;;;;;;;23.58;8.07;;;;;;;24.60;66.21;101087.84;5207714;28;20463;-72
2022/08/04 07:18:53;;;;;;;13.40;7.07;;;;;;;24.71;65.94;101089.28;5206997;28;20029;-72
2022/08/04 07:21:26;;;;;;;24.52;7.55;;;;;;;24.91;64.88;101083.41;5206327;28;20140;-72
2022/08/04 07:23:57;;;;;;;20.67;7.63;;;;;;;25.03;65.56;101087.31;5207582;28;20034;-74
2022/08/04 07:26:29;;;;;;;18.48;7.32;;;;;;;25.23;65.57;101084.13;5207010;28;20028;-72
2022/08/04 07:29:00;;;;;;;20.08;7.78;;;;;;;25.31;62.99;101086.69;5207739;28;20034;-72
2022/08/04 07:31:33;;;;;;;13.40;7.30;;;;;;;25.87;61.91;101099.81;5207280;28;20022;-72
2022/08/04 07:34:05;;;;;;;13.52;6.88;;;;;;;26.23;61.41;101107.03;5206879;28;20049;-72
2022/08/04 07:36:36;;;;;;;17.40;7.20;;;;;;;26.57;59.71;101104.69;5206249;28;20050;-73
2022/08/04 07:39:07;;;;;;;17.60;7.80;;;;;;;26.97;57.93;101106.88;5206930;28;20109;-73
2022/08/04 07:41:41;;;;;;;14.48;6.90;;;;;;;27.60;56.30;101098.97;5207066;28;20034;-73
2022/08/04 07:44:15;;;;;;;;;;;;;;;28.48;56.71;101102.81;5207175;28;20033;-73
2022/08/04 07:46:46;;;;;;;11.77;6.57;;;;;;;28.55;53.75;101102.81;5207477;28;20485;-74
2022/08/04 07:49:19;;;;;;;15.85;7.30;;;;;;;29.08;52.80;101094.94;5206418;28;20108;-73
2022/08/04 07:51:50;;;;;;;16.63;8.05;;;;;;;29.29;50.73;101087.63;5206680;28;20030;-73
2022/08/04 07:54:22;;;;;;;15.45;7.35;;;;;;;29.95;49.69;101098.38;5207382;28;20036;-73
2022/08/04 07:56:54;;;;;;;11.73;6.93;;;;;;;30.10;49.27;101100.75;5206801;28;20096;-73
2022/08/04 07:59:25;;;;;;;9.60;6.68;;;;;;;30.27;48.07;101111.06;5206736;28;20026;-74
2022/08/04 08:02:00;;;;;;;17.25;6.80;;;;;;;30.77;48.57;101104.84;5206104;28;20433;-74
2022/08/04 08:04:32;;;;;;;15.05;6.75;;;;;;;31.10;46.68;101115.59;5188258;28;20026;-73
2022/08/04 08:07:03;;;;;;;13.90;6.47;;;;;;;31.56;45.76;101120.75;5207378;28;20831;-73
2022/08/04 08:09:34;;;;;;;14.38;6.72;;;;;;;31.98;45.24;101120.00;5188237;28;20022;-73
2022/08/04 08:12:07;;;;;;;13.48;6.30;;;;;;;32.47;44.00;101124.50;5189868;28;20110;-73
2022/08/04 08:14:39;;;;;;;13.17;6.60;;;;;;;32.32;44.63;101128.50;5206359;28;20071;-74
2022/08/04 08:17:10;;;;;;;11.85;6.03;;;;;;;32.15;43.19;101128.34;5207109;28;20284;-75
2022/08/04 08:19:42;;;;;;;16.05;5.88;;;;;;;32.95;43.38;101124.56;5205806;28;20420;-72
2022/08/04 08:22:13;;;;;;;10.52;5.60;;;;;;;33.42;41.19;101128.28;5206121;28;20423;-73
2022/08/04 08:24:44;;;;;;;17.70;5.88;;;;;;;33.40;41.26;101125.81;5206835;28;20040;-73
2022/08/04 08:27:16;;;;;;;10.85;5.07;;;;;;;34.32;39.84;101120.78;5206519;28;20030;-73
2022/08/04 08:29:48;;;;;;;13.45;4.93;;;;;;;34.54;39.10;101126.28;5207408;28;20030;-73
2022/08/04 08:32:19;;;;;;;14.25;4.50;;;;;;;34.83;38.42;101128.09;5210679;28;20018;-74
2022/08/04 08:34:51;;;;;;;9.07;3.37;;;;;;;34.49;37.86;101134.38;5209274;28;20653;-74
2022/08/04 08:37:39;;;;;;;14.67;3.43;;;;;;;34.44;38.48;101140.53;5210693;28;20034;-73
2022/08/04 08:40:42;;;;;;;8.35;2.85;;;;;;;34.58;39.06;101143.72;5209606;28;20723;-74
2022/08/04 08:43:42;;;;;;;8.13;3.33;;;;;;;34.77;37.70;101154.41;5202878;28;20754;-73
2022/08/04 08:46:32;;;;;;;11.50;2.70;;;;;;;34.43;38.50;101154.34;5209756;28;20795;-73
2022/08/04 08:49:41;;;;;;;10.25;2.78;;;;;;;34.64;38.26;101155.53;5209876;28;20025;-74
2022/08/04 08:52:28;;;;;;;7.40;2.65;;;;;;;34.48;37.41;101160.72;5209052;28;20187;-74
2022/08/04 08:55:12;;;;;;;8.02;2.30;;;;;;;33.91;37.35;101162.41;5210159;28;20436;-73
2022/08/04 08:58:08;;;;;;;10.38;2.47;;;;;;;34.93;37.07;101163.59;5209639;28;20029;-74
2022/08/04 09:01:03;;;;;;;9.10;1.80;;;;;;;35.29;36.35;101165.22;5209912;28;20026;-74
2022/08/04 09:03:50;;;;;;;13.52;2.70;;;;;;;35.72;35.96;101165.44;5209898;28;20041;-74
2022/08/04 09:06:36;;;;;;;8.00;2.50;;;;;;;35.65;35.37;101170.25;5191000;28;20092;-73
2022/08/04 09:09:27;;;;;;;9.18;2.08;;;;;;;35.81;34.46;101176.75;5209427;28;20026;-73
2022/08/04 09:12:20;;;;;;;7.93;1.98;;;;;;;35.73;34.20;101180.72;5210396;28;20026;-73
2022/08/04 09:15:29;;;;;;;8.98;2.08;;;;;;;35.56;34.98;101169.88;5210062;28;20045;-74
2022/08/04 09:18:04;;;;;;;12.05;2.33;;;;;;;34.72;35.59;101176.09;5169467;28;20396;-73
2022/08/04 09:20:45;;;;;;;8.57;2.60;;;;;;;34.15;36.63;101173.16;5208487;28;20477;-73
2022/08/04 09:23:34;;;;;;;11.48;2.72;;;;;;;34.18;36.92;101172.66;5209506;28;20072;-74
2022/08/04 09:26:17;;;;;;;7.40;2.60;;;;;;;33.54;38.57;101180.69;5208485;28;20022;-73
2022/08/04 09:29:06;;;;;;;8.25;2.67;;;;;;;33.74;37.42;101184.88;5209609;28;20541;-73
2022/08/04 09:32:00;;;;;;;11.18;2.85;;;;;;;33.97;37.80;101176.91;5209337;28;20026;-73
2022/08/04 09:34:53;;;;;;;9.27;2.72;;;;;;;33.61;37.80;101185.97;5208513;28;20543;-74
2022/08/04 09:37:40;;;;;;;13.73;2.22;;;;;;;33.35;36.11;101184.59;5209164;28;20053;-74
2022/08/04 09:40:47;;;;;;;8.88;2.10;;;;;;;32.46;36.12;101204.16;5209983;28;20030;-74
2022/08/04 09:43:26;;;;;;;10.10;1.75;;;;;;;32.27;36.71;101203.38;5125107;29;20119;-75
2022/08/04 09:46:04;;;;;;;19.38;2.58;;;;;;;32.11;37.29;101209.22;5200272;28;20110;-73
2022/08/04 09:48:47;;;;;;;8.98;2.42;;;;;;;31.77;38.70;101216.09;5209530;28;20026;-73
2022/08/04 09:51:40;;;;;;;11.75;2.10;;;;;;;31.83;38.12;101218.72;5208748;28;20026;-74
2022/08/04 09:54:46;;;;;;;8.57;1.97;;;;;;;31.30;39.56;101211.97;5208829;28;20037;-73
2022/08/04 09:57:40;;;;;;;10.48;2.72;;;;;;;31.82;38.63;101219.75;5125684;29;20666;-72
2022/08/04 10:00:15;;;;;;;;;;;;;;;32.32;37.67;101226.03;5207716;28;20045;-73
2022/08/04 10:02:53;;;;;;;13.15;2.67;;;;;;;31.08;40.16;101231.28;5208548;28;19917;-72
2022/08/04 10:05:39;;;;;;;13.25;2.33;;;;;;;31.02;40.34;101235.69;5208565;28;20034;-72
2022/08/04 10:08:43;;;;;;;11.85;2.67;;;;;;;30.51;41.49;101230.22;5208427;28;20030;-74
2022/08/04 10:11:22;;;;;;;13.18;3.17;;;;;;;30.40;42.62;101224.47;5164973;28;20060;-72
2022/08/04 10:14:09;;;;;;;14.13;3.10;;;;;;;30.37;42.14;101214.06;5191494;28;20674;-72
2022/08/04 10:17:05;;;;;;;11.63;2.75;;;;;;;30.47;42.85;101234.38;5208296;28;20029;-75
2022/08/04 10:19:39;;;;;;;10.93;2.40;;;;;;;30.03;44.46;101279.00;5206842;28;20125;-72
2022/08/04 10:22:17;;;;;;;11.73;2.58;;;;;;;30.07;44.48;101306.41;5208451;28;20034;-74
2022/08/04 10:25:20;;;;;;;16.98;2.88;;;;;;;29.85;44.96;101319.34;5208115;28;20030;-73
2022/08/04 10:27:57;;;;;;;14.30;2.80;;;;;;;29.49;48.98;101318.72;5207145;28;20037;-72
2022/08/04 10:30:32;;;;;;;15.85;4.53;;;;;;;29.19;55.52;101293.81;5190214;28;20040;-73
2022/08/04 10:33:29;;;;;;;16.50;3.30;;;;;;;29.35;52.08;101305.22;5208367;28;20026;-73
2022/08/04 10:36:05;;;;;;;19.17;3.30;;;;;;;28.85;58.04;101293.72;5208256;28;20033;-71
2022/08/04 10:39:02;;;;;;;11.40;3.08;;;;;;;28.75;56.71;101280.66;5207843;28;20022;-72
2022/08/04 10:41:46;;;;;;;18.85;3.28;;;;;;;28.38;58.76;101263.97;5190024;28;20079;-72
2022/08/04 10:44:45;;;;;;;11.25;3.10;;;;;;;28.22;59.65;101244.41;5207915;28;20032;-72
2022/08/04 10:47:20;;;;;;;12.10;3.00;;;;;;;27.51;64.79;101225.56;5207700;28;20038;-72
2022/08/04 10:50:00;;;;;;;12.32;2.90;;;;;;;27.49;67.07;101214.16;5207026;28;20040;-72
2022/08/04 10:53:01;;;;;;;10.45;3.10;;;;;;;28.00;65.56;101230.22;5207007;28;20022;-71
2022/08/04 10:55:39;;;;;;;10.27;2.90;;;;;;;27.85;67.71;101238.44;5206562;28;20545;-71
2022/08/04 10:58:17;;;;;;;8.90;2.47;;;;;;;28.45;66.44;101227.09;5207227;28;20026;-72
2022/08/04 11:00:55;;;;;;;12.93;3.33;;;;;;;29.59;65.02;101224.69;5207811;28;20026;-71
2022/08/04 11:03:39;;;;;;;11.65;3.50;;;;;;;29.02;61.04;101242.16;5206926;28;20158;-72
2022/08/04 11:06:10;;;;;;;;;;;;;;;29.91;59.38;101262.66;5207615;28;20056;-73
2022/08/04 11:08:47;;;;;;;9.25;3.25;;;;;;;29.38;64.95;101261.66;5207265;28;19914;-73
2022/08/04 11:11:43;;;;;;;16.05;4.30;;;;;;;28.78;60.51;101244.41;5208054;28;20028;-73
2022/08/04 11:14:18;;;;;;;8.77;3.65;;;;;;;28.75;60.77;101240.22;5189388;28;20037;-72
2022/08/04 11:16:59;;;;;;;10.98;3.17;;;;;;;28.26;65.19;101234.03;5207540;28;20041;-72
2022/08/04 11:19:42;;;;;;;5.57;3.03;;;;;;;28.67;62.05;101229.66;5188206;28;20396;-72
2022/08/04 11:22:27;;;;;;;12.40;3.40;;;;;;;28.37;61.07;101244.28;5207129;28;20030;-72
2022/08/04 11:25:21;;;;;;;12.43;3.70;;;;;;;28.43;59.89;101218.41;5207478;28;20046;-72
2022/08/04 11:28:12;;;;;;;7.13;3.80;;;;;;;28.37;61.87;101221.91;5207213;28;20289;-72
2022/08/04 11:30:51;;;;;;;8.35;3.42;;;;;;;28.57;61.23;101235.44;5206783;28;20034;-72
2022/08/04 11:33:31;;;;;;;12.93;3.83;;;;;;;28.49;62.02;101222.13;5207067;28;20037;-72
2022/08/04 11:36:19;;;;;;;8.93;3.30;;;;;;;28.75;61.47;101236.69;5206605;28;20140;-72
2022/08/04 11:39:17;;;;;;;10.07;4.18;;;;;;;29.29;59.80;101239.47;5207516;28;20080;-72
2022/08/04 11:42:09;;;;;;;8.82;3.50;;;;;;;29.20;56.15;101233.44;5207470;28;20381;-72
2022/08/04 11:44:47;;;;;;;7.10;2.83;;;;;;;29.30;56.31;101232.22;5206160;28;20022;-74
2022/08/04 11:47:29;;;;;;;14.00;3.78;;;;;;;29.22;55.09;101239.47;5206349;28;20030;-73
2022/08/04 11:50:25;;;;;;;8.55;2.83;;;;;;;28.91;55.27;101243.56;5207012;28;20307;-72
2022/08/04 11:52:58;;;;;;;9.27;2.28;;;;;;;29.08;53.40;101230.53;5205740;28;20424;-73
2022/08/04 11:55:31;;;;;;;6.90;2.30;;;;;;;29.54;52.71;101232.59;5206880;28;20110;-72
2022/08/04 11:58:02;;;;;;;6.05;2.58;;;;;;;28.80;54.80;101228.81;5207041;28;20288;-72
2022/08/04 12:00:39;;;;;;;8.30;2.58;;;;;;;29.58;52.71;101231.13;5189237;28;20014;-72
2022/08/04 12:03:38;;;;;;;5.22;2.08;;;;;;;29.84;52.25;101237.53;5206588;28;20050;-73
2022/08/04 12:06:19;;;;;;;8.77;2.40;;;;;;;29.53;53.14;101241.72;5210138;28;20499;-72
2022/08/04 12:09:05;;;;;;;5.45;1.75;;;;;;;30.30;50.26;101251.91;5210928;28;20018;-72
2022/08/04 12:11:50;;;;;;;5.28;1.75;;;;;;;30.22;50.37;101245.94;5210589;28;20026;-73
2022/08/04 12:14:38;;;;;;;4.60;2.08;;;;;;;30.46;49.50;101241.66;5210580;28;20061;-72
2022/08/04 12:17:11;;;;;;;4.22;1.95;;;;;;;30.07;49.81;101242.41;5210797;28;20061;-72
2022/08/04 12:19:51;;;;;;;4.10;2.40;;;;;;;30.31;49.54;101252.75;5210032;28;20101;-73
2022/08/04 12:23:18;;;;;;;7.10;2.40;;;;;;;30.35;49.14;101247.75;5209775;28;20728;-73
2022/08/04 12:25:54;;;;;;;9.75;2.70;;;;;;;29.80;49.73;101263.28;5166778;28;20038;-73
2022/08/04 12:28:32;;;;;;;6.68;2.50;;;;;;;29.59;50.23;101262.47;5209800;28;20409;-73
2022/08/04 12:31:11;;;;;;;8.85;3.15;;;;;;;29.80;49.67;101266.81;5211173;28;20589;-72
2022/08/04 12:34:25;;;;;;;5.95;2.38;;;;;;;29.92;49.84;101267.00;5191877;28;20108;-73